Time;durP1;ratioP1;P1;durP2;ratioP2;P2;SDS_P1;SDS_P2;PMS_P1;PMS_P2;Temp;Humidity;BMP_temperature;BMP_pressure;BME280_temperature;BME280_humidity;BME280_pressure;Samples;Min_cycle;Max_cycle;Signal;HPM_P1;HPM_P2
2021/12/29 00:00:40;;;;;;;;;;;5.20;99.90;;;;;;5070609;28;20367;-62
2021/12/29 00:03:10;;;;;;;;;;;5.10;99.90;;;;;;5053117;28;20327;-65
2021/12/29 00:05:38;;;;;;;;;;;5.10;99.90;;;;;;5068942;28;20382;-64
2021/12/29 00:08:06;;;;;;;;;;;5.10;99.90;;;;;;5071532;28;19920;-65
2021/12/29 00:10:34;;;;;;;;;;;5.00;99.90;;;;;;5054156;28;19920;-61
2021/12/29 00:13:04;;;;;;;;;;;5.00;99.90;;;;;;5071401;28;19921;-64
2021/12/29 00:15:31;;;;;;;;;;;5.00;99.90;;;;;;5071552;28;19931;-64
2021/12/29 00:17:59;;;;;;;;;;;5.00;99.90;;;;;;5055811;28;19920;-65
2021/12/29 00:20:28;;;;;;;;;;;5.00;99.90;;;;;;5071299;28;20312;-65
2021/12/29 00:22:57;;;;;;;;;;;4.90;99.90;;;;;;5071320;28;20288;-65
2021/12/29 00:25:24;;;;;;;;;;;4.90;99.90;;;;;;5071634;28;19920;-65
2021/12/29 00:27:55;;;;;;;;;;;4.90;99.90;;;;;;5071074;28;20283;-65
2021/12/29 00:30:23;;;;;;;;;;;4.90;99.90;;;;;;5071492;28;20303;-62
2021/12/29 00:32:57;;;;;;;;;;;4.80;99.90;;;;;;5056056;28;19924;-61
2021/12/29 00:35:44;;;;;;;;;;;4.80;99.90;;;;;;5056314;28;19920;-60
2021/12/29 00:38:32;;;;;;;;;;;4.80;99.90;;;;;;5071177;28;19920;-60
2021/12/29 00:41:41;;;;;;;;;;;4.80;99.90;;;;;;5071318;28;19928;-59
2021/12/29 00:44:27;;;;;;;;;;;4.70;99.90;;;;;;5052888;28;19924;-61
2021/12/29 00:47:03;;;;;;;;;;;4.70;99.90;;;;;;5043643;28;19927;-60
2021/12/29 00:49:34;;;;;;;;;;;4.70;99.90;;;;;;5066735;28;20407;-60
2021/12/29 00:52:05;;;;;;;;;;;4.70;99.90;;;;;;5071300;28;19928;-61
2021/12/29 00:54:32;;;;;;;;;;;4.70;99.90;;;;;;5052552;28;20319;-60
2021/12/29 00:57:00;;;;;;;;;;;4.80;99.90;;;;;;5070952;28;19935;-61
2021/12/29 00:59:27;;;;;;;;;;;4.80;99.90;;;;;;5070448;28;20323;-61
2021/12/29 01:01:55;;;;;;;;;;;4.80;99.90;;;;;;5061463;28;19921;-62
2021/12/29 01:04:23;;;;;;;;;;;4.80;99.90;;;;;;5061928;28;19928;-61
2021/12/29 01:06:52;;;;;;;;;;;4.80;99.90;;;;;;5068649;28;19921;-60
2021/12/29 01:09:20;;;;;;;;;;;4.80;99.90;;;;;;5070686;28;19920;-61
2021/12/29 01:11:48;;;;;;;;;;;4.70;99.90;;;;;;5070691;28;20300;-60
2021/12/29 01:14:21;;;;;;;;;;;4.70;99.90;;;;;;5070301;28;19944;-60
2021/12/29 01:16:49;;;;;;;;;;;4.70;99.90;;;;;;5065146;28;19928;-61
2021/12/29 01:19:18;;;;;;;;;;;4.70;99.90;;;;;;5064672;28;19934;-60
2021/12/29 01:21:48;;;;;;;;;;;4.70;99.90;;;;;;5070385;28;19947;-60
2021/12/29 01:24:17;;;;;;;;;;;4.70;99.90;;;;;;5069782;28;19943;-60
2021/12/29 01:26:44;;;;;;;;;;;4.70;99.90;;;;;;5070394;28;19920;-60
2021/12/29 01:29:12;;;;;;;;;;;4.80;99.90;;;;;;5070112;28;20010;-60
2021/12/29 01:31:41;;;;;;;;;;;4.80;99.90;;;;;;5066843;28;19920;-60
2021/12/29 01:34:08;;;;;;;;;;;4.80;99.90;;;;;;5062411;28;19924;-60
2021/12/29 01:36:37;;;;;;;;;;;4.80;99.90;;;;;;5069959;28;19924;-60
2021/12/29 01:39:06;;;;;;;;;;;4.80;99.90;;;;;;5069976;28;19939;-60
2021/12/29 01:41:33;;;;;;;;;;;4.80;99.90;;;;;;5070023;28;19920;-60
2021/12/29 01:44:01;;;;;;;;;;;4.80;99.90;;;;;;5069952;28;19924;-60
2021/12/29 01:46:29;;;;;;;;;;;4.80;99.90;;;;;;5069150;28;19927;-60
2021/12/29 01:48:56;;;;;;;;;;;4.80;99.90;;;;;;5060854;28;20095;-60
2021/12/29 01:51:24;;;;;;;;;;;4.80;99.90;;;;;;5070066;28;19920;-62
2021/12/29 01:54:14;;;;;;;;;;;4.90;99.90;;;;;;5069628;28;19931;-60
2021/12/29 01:56:42;;;;;;;;;;;4.90;99.90;;;;;;5055177;28;19931;-60
2021/12/29 01:59:11;;;;;;;;;;;4.90;99.90;;;;;;5069510;28;19924;-60
2021/12/29 02:01:38;;;;;;;;;;;5.00;99.90;;;;;;5067976;28;19920;-60
2021/12/29 02:04:06;;;;;;;;;;;5.00;99.90;;;;;;5061820;28;19924;-60
2021/12/29 02:06:34;;;;;;;;;;;5.00;99.90;;;;;;5069047;28;19940;-60
2021/12/29 02:09:03;;;;;;;;;;;5.00;99.90;;;;;;5069198;28;19920;-60
2021/12/29 02:11:30;;;;;;;;;;;5.00;99.90;;;;;;5069753;28;19920;-60
2021/12/29 02:13:59;;;;;;;;;;;5.00;99.90;;;;;;5051613;28;20379;-60
2021/12/29 02:16:27;;;;;;;;;;;5.00;99.90;;;;;;5069244;28;20394;-61
2021/12/29 02:18:59;;;;;;;;;;;5.00;99.90;;;;;;5060553;28;19920;-61
2021/12/29 02:21:28;;;;;;;;;;;5.00;99.90;;;;;;5069482;28;19924;-60
2021/12/29 02:26:38;;;;;;;;;;;4.90;99.90;;;;;;5069150;28;19928;-60
2021/12/29 02:29:06;;;;;;;;;;;4.90;99.90;;;;;;5068737;28;19920;-60
2021/12/29 02:31:36;;;;;;;;;;;4.90;99.90;;;;;;5044323;28;19921;-60
2021/12/29 02:34:04;;;;;;;;;;;4.90;99.90;;;;;;5068009;28;19921;-60
2021/12/29 02:36:32;;;;;;;;;;;4.80;99.90;;;;;;5034364;28;19932;-64
2021/12/29 02:39:01;;;;;;;;;;;4.80;99.90;;;;;;5063549;28;19920;-62
2021/12/29 02:41:30;;;;;;;;;;;4.80;99.90;;;;;;5072273;28;19920;-63
2021/12/29 02:44:00;;;;;;;;;;;4.80;99.90;;;;;;5072395;28;19927;-65
2021/12/29 02:46:29;;;;;;;;;;;4.70;99.90;;;;;;5052510;28;19920;-65
2021/12/29 02:49:02;;;;;;;;;;;4.80;99.90;;;;;;5072101;28;19920;-63
2021/12/29 02:51:31;;;;;;;;;;;4.80;99.90;;;;;;5054578;28;20371;-65
2021/12/29 02:53:59;;;;;;;;;;;4.90;99.90;;;;;;5054747;28;19927;-65
2021/12/29 02:56:27;;;;;;;;;;;4.90;99.90;;;;;;5072288;28;19940;-65
2021/12/29 02:58:55;;;;;;;;;;;5.00;99.90;;;;;;5071599;28;19921;-61
2021/12/29 03:01:23;;;;;;;;;;;5.00;99.90;;;;;;5054198;28;19927;-66
2021/12/29 03:03:50;;;;;;;;;;;5.10;99.90;;;;;;5072195;28;19953;-64
2021/12/29 03:06:19;;;;;;;;;;;5.10;99.90;;;;;;5053862;28;19921;-64
2021/12/29 03:08:47;;;;;;;;;;;5.10;99.90;;;;;;5072506;28;19920;-65
2021/12/29 03:11:14;;;;;;;;;;;5.20;99.90;;;;;;5071900;28;19943;-65
2021/12/29 03:13:42;;;;;;;;;;;5.20;99.90;;;;;;5054224;28;19920;-65
2021/12/29 03:16:10;;;;;;;;;;;5.10;99.90;;;;;;5072315;28;19924;-60
2021/12/29 03:18:37;;;;;;;;;;;5.20;99.90;;;;;;5071929;28;19920;-61
2021/12/29 03:21:05;;;;;;;;;;;5.20;99.90;;;;;;5072013;28;19995;-61
2021/12/29 03:23:33;;;;;;;;;;;5.20;99.90;;;;;;5072121;28;19920;-60
2021/12/29 03:26:02;;;;;;;;;;;5.20;99.90;;;;;;5053945;28;19920;-60
2021/12/29 03:28:29;;;;;;;;;;;5.10;99.90;;;;;;5072010;28;19920;-60
2021/12/29 03:30:56;;;;;;;;;;;5.10;99.90;;;;;;5071946;28;19921;-60
2021/12/29 03:33:28;;;;;;;;;;;5.10;99.90;;;;;;5071913;28;19943;-60
2021/12/29 03:36:00;;;;;;;;;;;5.10;99.90;;;;;;5071525;28;19924;-61
2021/12/29 03:38:29;;;;;;;;;;;5.10;99.90;;;;;;5071761;28;20288;-60
2021/12/29 03:40:57;;;;;;;;;;;5.10;99.90;;;;;;5071782;28;19924;-60
2021/12/29 03:43:25;;;;;;;;;;;5.10;99.90;;;;;;5071594;28;19928;-60
2021/12/29 03:45:54;;;;;;;;;;;5.10;99.90;;;;;;5087402;28;19927;-60
2021/12/29 03:48:23;;;;;;;;;;;5.10;99.90;;;;;;5071663;28;19987;-60
2021/12/29 03:50:51;;;;;;;;;;;5.20;99.90;;;;;;5071914;28;19920;-61
2021/12/29 03:53:18;;;;;;;;;;;5.20;99.90;;;;;;5071731;28;19921;-60
2021/12/29 03:55:48;;;;;;;;;;;5.30;99.90;;;;;;5071705;28;19920;-60
2021/12/29 03:58:17;;;;;;;;;;;5.30;99.90;;;;;;5072103;28;20283;-61
2021/12/29 04:00:45;;;;;;;;;;;5.30;99.90;;;;;;5071475;28;20299;-60
2021/12/29 04:03:13;;;;;;;;;;;5.30;99.90;;;;;;5054048;28;20268;-60
2021/12/29 04:05:45;;;;;;;;;;;5.40;99.90;;;;;;5071703;28;19920;-60
2021/12/29 04:08:13;;;;;;;;;;;5.30;99.90;;;;;;5071592;28;19974;-60
2021/12/29 04:10:41;;;;;;;;;;;5.30;99.90;;;;;;5071510;28;20383;-60
2021/12/29 04:13:09;;;;;;;;;;;5.30;99.90;;;;;;5053957;28;20382;-61
2021/12/29 04:15:37;;;;;;;;;;;5.30;99.90;;;;;;5053571;28;20426;-62
2021/12/29 04:18:14;;;;;;;;;;;5.30;99.90;;;;;;5037055;28;19927;-60
2021/12/29 04:20:55;;;;;;;;;;;5.40;99.90;;;;;;5071601;28;20299;-60
2021/12/29 04:23:28;;;;;;;;;;;5.40;99.90;;;;;;5071107;28;19920;-61
2021/12/29 04:25:56;;;;;;;;;;;5.40;99.90;;;;;;5071707;28;19927;-61
2021/12/29 04:28:25;;;;;;;;;;;5.50;99.90;;;;;;5071607;28;19928;-61
2021/12/29 04:30:54;;;;;;;;;;;5.50;99.90;;;;;;5074598;28;19927;-61
2021/12/29 04:33:22;;;;;;;;;;;5.60;99.90;;;;;;5074849;28;20367;-61
2021/12/29 04:35:49;;;;;;;;;;;5.60;99.90;;;;;;5074682;28;19927;-60
2021/12/29 04:38:17;;;;;;;;;;;5.60;99.90;;;;;;5074816;28;20025;-61
2021/12/29 04:40:45;;;;;;;;;;;5.70;99.90;;;;;;5075032;28;20287;-61
2021/12/29 04:43:12;;;;;;;;;;;5.70;99.90;;;;;;5074555;28;19920;-62
2021/12/29 04:45:40;;;;;;;;;;;5.70;99.90;;;;;;5090235;28;19920;-62
2021/12/29 04:48:12;;;;;;;;;;;5.80;99.90;;;;;;5074643;28;19920;-64
2021/12/29 04:50:42;;;;;;;;;;;5.80;99.90;;;;;;5074495;28;19921;-62
2021/12/29 04:53:10;;;;;;;;;;;5.80;99.90;;;;;;5074789;28;19921;-62
2021/12/29 04:55:39;;;;;;;;;;;5.80;99.90;;;;;;5056438;28;20388;-62
2021/12/29 04:58:06;;;;;;;;;;;5.80;99.90;;;;;;5074445;28;19920;-63
2021/12/29 05:00:34;;;;;;;;;;;5.80;99.90;;;;;;5056505;28;19920;-60
2021/12/29 05:03:01;;;;;;;;;;;5.90;99.90;;;;;;5074486;28;20378;-60
2021/12/29 05:10:46;;;;;;;;;;;5.90;99.90;;;;;;5074187;28;19943;-60
2021/12/29 05:13:14;;;;;;;;;;;5.90;99.90;;;;;;5074128;28;19928;-60
2021/12/29 05:15:42;;;;;;;;;;;6.00;99.90;;;;;;5073998;28;20299;-60
2021/12/29 05:18:10;;;;;;;;;;;6.00;99.90;;;;;;5074183;28;19920;-61
2021/12/29 05:20:38;;;;;;;;;;;6.00;99.90;;;;;;5073931;28;19920;-60
2021/12/29 05:23:05;;;;;;;;;;;6.00;99.90;;;;;;5073923;28;19921;-61
2021/12/29 05:25:33;;;;;;;;;;;6.00;99.90;;;;;;5073411;28;19927;-60
2021/12/29 05:28:00;;;;;;;;;;;6.10;99.90;;;;;;5073192;28;20265;-60
2021/12/29 05:30:28;;;;;;;;;;;6.10;99.90;;;;;;5073899;28;19920;-60
2021/12/29 05:32:55;;;;;;;;;;;6.00;99.90;;;;;;5073686;28;19920;-60
2021/12/29 05:35:27;;;;;;;;;;;6.10;99.90;;;;;;5073605;28;19920;-60
2021/12/29 05:37:54;;;;;;;;;;;6.10;99.90;;;;;;5073792;28;19920;-60
2021/12/29 05:40:23;;;;;;;;;;;6.10;99.90;;;;;;5072543;28;19920;-65
2021/12/29 05:42:50;;;;;;;;;;;6.20;99.90;;;;;;5073662;28;20287;-65
2021/12/29 05:45:18;;;;;;;;;;;6.10;99.90;;;;;;5073521;28;20360;-66
2021/12/29 05:47:45;;;;;;;;;;;6.20;99.90;;;;;;5045422;28;19929;-66
2021/12/29 05:50:16;;;;;;;;;;;6.20;99.90;;;;;;5049943;28;19921;-65
2021/12/29 05:52:44;;;;;;;;;;;6.20;99.90;;;;;;5050051;28;19921;-65
2021/12/29 05:55:11;;;;;;;;;;;6.20;99.90;;;;;;5050090;28;19920;-65
2021/12/29 05:57:39;;;;;;;;;;;6.20;99.90;;;;;;5054948;28;19924;-64
2021/12/29 06:00:09;;;;;;;;;;;6.20;99.90;;;;;;5069703;28;19924;-64
2021/12/29 06:02:36;;;;;;;;;;;6.30;99.90;;;;;;5040907;28;20016;-70
2021/12/29 06:05:06;;;;;;;;;;;6.20;99.90;;;;;;5046788;28;19928;-69
2021/12/29 06:07:34;;;;;;;;;;;6.30;99.90;;;;;;5050739;28;19921;-69
2021/12/29 06:10:03;;;;;;;;;;;6.30;99.90;;;;;;5066798;28;19924;-69
2021/12/29 06:12:35;;;;;;;;;;;6.30;99.90;;;;;;5065904;28;19920;-67
2021/12/29 06:15:03;;;;;;;;;;;6.30;99.90;;;;;;5048829;28;19927;-62
2021/12/29 06:17:31;;;;;;;;;;;6.40;99.90;;;;;;5066364;28;19924;-61
2021/12/29 06:19:58;;;;;;;;;;;6.40;99.90;;;;;;5066336;28;19931;-62
2021/12/29 06:22:26;;;;;;;;;;;6.40;99.90;;;;;;5048140;28;19943;-61
2021/12/29 06:24:53;;;;;;;;;;;6.50;99.90;;;;;;5066761;28;19932;-65
2021/12/29 06:27:21;;;;;;;;;;;6.50;99.90;;;;;;5065580;28;20284;-62
2021/12/29 06:29:49;;;;;;;;;;;6.50;99.90;;;;;;5048020;28;19924;-61
2021/12/29 06:32:17;;;;;;;;;;;6.50;99.90;;;;;;5065464;28;20295;-63
2021/12/29 06:34:45;;;;;;;;;;;6.50;99.90;;;;;;5047173;28;19924;-61
2021/12/29 06:37:13;;;;;;;;;;;6.60;99.90;;;;;;5067813;28;20368;-63
2021/12/29 06:39:41;;;;;;;;;;;6.60;99.90;;;;;;5068948;28;19924;-61
2021/12/29 06:42:09;;;;;;;;;;;6.60;99.90;;;;;;5068680;28;20187;-61
2021/12/29 06:44:37;;;;;;;;;;;6.70;99.90;;;;;;5068929;28;19935;-61
2021/12/29 06:47:05;;;;;;;;;;;6.70;99.90;;;;;;5066440;28;20296;-62
2021/12/29 06:49:33;;;;;;;;;;;6.80;99.90;;;;;;5049441;28;19928;-63
2021/12/29 06:52:02;;;;;;;;;;;6.80;99.90;;;;;;5048687;28;19924;-64
2021/12/29 06:54:29;;;;;;;;;;;6.80;99.90;;;;;;5051300;28;19927;-64
2021/12/29 06:56:57;;;;;;;;;;;6.80;99.90;;;;;;5068694;28;19928;-64
2021/12/29 06:59:25;;;;;;;;;;;6.80;99.90;;;;;;5068903;28;19920;-62
2021/12/29 07:01:53;;;;;;;;;;;6.80;99.90;;;;;;5066266;28;19991;-63
2021/12/29 07:04:23;;;;;;;;;;;6.80;99.90;;;;;;5053113;28;20245;-64
2021/12/29 07:06:51;;;;;;;;;;;6.90;99.90;;;;;;5047826;28;19947;-63
2021/12/29 07:09:19;;;;;;;;;;;6.90;99.90;;;;;;5066752;28;19920;-61
2021/12/29 07:11:47;;;;;;;;;;;6.90;99.90;;;;;;5068882;28;19920;-62
2021/12/29 07:14:15;;;;;;;;;;;6.90;99.90;;;;;;5068357;28;20299;-64
2021/12/29 07:16:44;;;;;;;;;;;6.90;99.90;;;;;;5050922;28;20268;-65
2021/12/29 07:19:11;;;;;;;;;;;7.00;99.90;;;;;;5046621;28;19935;-60
2021/12/29 07:21:39;;;;;;;;;;;7.00;99.90;;;;;;5048620;28;19920;-60
2021/12/29 07:24:07;;;;;;;;;;;7.00;99.90;;;;;;5049103;28;19924;-60
2021/12/29 07:26:34;;;;;;;;;;;7.00;99.90;;;;;;5068285;28;20261;-61
2021/12/29 07:29:03;;;;;;;;;;;7.00;99.90;;;;;;5068403;28;19924;-61
2021/12/29 07:31:30;;;;;;;;;;;7.00;99.90;;;;;;5068445;28;20411;-61
2021/12/29 07:34:17;;;;;;;;;;;7.00;99.90;;;;;;5056318;28;20364;-62
2021/12/29 07:36:45;;;;;;;;;;;7.00;99.90;;;;;;5045869;28;20298;-63
2021/12/29 07:39:14;;;;;;;;;;;7.00;99.90;;;;;;5062623;28;19927;-61
2021/12/29 07:41:43;;;;;;;;;;;7.10;99.90;;;;;;5048948;28;19920;-63
2021/12/29 07:44:18;;;;;;;;;;;7.10;99.90;;;;;;5050174;28;19925;-62
2021/12/29 07:46:52;;;;;;;;;;;7.10;99.90;;;;;;5068191;28;19924;-62
2021/12/29 07:49:20;;;;;;;;;;;7.10;99.90;;;;;;5058049;28;19921;-61
2021/12/29 07:51:48;;;;;;;;;;;7.10;99.90;;;;;;5048340;28;19921;-61
2021/12/29 07:54:16;;;;;;;;;;;7.10;99.90;;;;;;5067952;28;19924;-62
2021/12/29 07:56:44;;;;;;;;;;;7.20;99.90;;;;;;5068131;28;19924;-61
2021/12/29 07:59:11;;;;;;;;;;;7.20;99.90;;;;;;5050021;28;20372;-61
2021/12/29 08:01:40;;;;;;;;;;;7.20;99.90;;;;;;5066093;28;20356;-60
2021/12/29 08:04:14;;;;;;;;;;;7.20;99.90;;;;;;5058227;28;20085;-61
2021/12/29 08:06:42;;;;;;;;;;;7.20;99.90;;;;;;5048912;28;19924;-61
2021/12/29 08:09:10;;;;;;;;;;;7.20;99.90;;;;;;5068992;28;19920;-60
2021/12/29 08:11:38;;;;;;;;;;;7.20;99.90;;;;;;5071877;28;19928;-61
2021/12/29 08:14:06;;;;;;;;;;;7.30;99.90;;;;;;5053497;28;19924;-61
2021/12/29 08:16:34;;;;;;;;;;;7.30;99.90;;;;;;5071790;28;20295;-61
2021/12/29 08:19:02;;;;;;;;;;;7.30;99.90;;;;;;5066010;28;20091;-60
2021/12/29 08:21:29;;;;;;;;;;;7.30;99.90;;;;;;5051834;28;19921;-61
2021/12/29 08:23:56;;;;;;;;;;;7.40;99.90;;;;;;5084381;28;19927;-61
2021/12/29 08:26:24;;;;;;;;;;;7.40;99.90;;;;;;5071399;28;19920;-61
2021/12/29 08:28:51;;;;;;;;;;;7.40;99.90;;;;;;5086902;28;19924;-60
2021/12/29 08:31:19;;;;;;;;;;;7.40;99.90;;;;;;5071620;28;19920;-61
2021/12/29 08:33:47;;;;;;;;;;;7.40;99.90;;;;;;5068341;28;19999;-60
2021/12/29 08:36:14;;;;;;;;;;;7.40;99.90;;;;;;5051708;28;19927;-60
2021/12/29 08:38:42;;;;;;;;;;;7.40;99.90;;;;;;5079732;28;20395;-60
2021/12/29 08:41:10;;;;;;;;;;;7.40;99.90;;;;;;5053526;28;19920;-60
2021/12/29 08:43:38;;;;;;;;;;;7.40;99.90;;;;;;5070804;28;20334;-59
2021/12/29 08:46:05;;;;;;;;;;;7.40;99.90;;;;;;5071320;28;19921;-59
2021/12/29 08:48:37;;;;;;;;;;;7.40;99.90;;;;;;5053035;28;19927;-58
2021/12/29 08:51:04;;;;;;;;;;;7.40;99.90;;;;;;5051562;28;19924;-58
2021/12/29 08:53:32;;;;;;;;;;;7.50;99.90;;;;;;5046705;28;19928;-58
2021/12/29 08:55:59;;;;;;;;;;;7.50;99.90;;;;;;5071419;28;19921;-58
2021/12/29 08:58:27;;;;;;;;;;;7.50;99.90;;;;;;5070872;28;19920;-59
2021/12/29 09:00:55;;;;;;;;;;;7.50;99.90;;;;;;5071060;28;20291;-58
2021/12/29 09:03:23;;;;;;;;;;;7.50;99.90;;;;;;5053006;28;19927;-58
2021/12/29 09:05:51;;;;;;;;;;;7.50;99.90;;;;;;5034128;28;20296;-59
2021/12/29 09:08:18;;;;;;;;;;;7.60;99.90;;;;;;5060602;28;20375;-58
2021/12/29 09:10:46;;;;;;;;;;;7.60;99.90;;;;;;5070978;28;20379;-59
2021/12/29 09:13:14;;;;;;;;;;;7.60;99.90;;;;;;5070964;28;19921;-59
2021/12/29 09:15:42;;;;;;;;;;;7.60;99.90;;;;;;5070364;28;20418;-59
2021/12/29 09:18:10;;;;;;;;;;;7.70;99.90;;;;;;5070585;28;19925;-60
2021/12/29 09:20:44;;;;;;;;;;;7.70;99.90;;;;;;5054719;28;20395;-59
2021/12/29 09:23:13;;;;;;;;;;;7.80;99.90;;;;;;5060468;28;19924;-60
2021/12/29 09:25:41;;;;;;;;;;;7.80;99.90;;;;;;5066963;28;19963;-59
2021/12/29 09:28:10;;;;;;;;;;;7.80;99.90;;;;;;5067386;28;20259;-59
2021/12/29 09:30:39;;;;;;;;;;;7.90;99.90;;;;;;5070810;28;20176;-59
2021/12/29 09:33:07;;;;;;;;;;;7.90;99.90;;;;;;5069860;28;19943;-60
2021/12/29 09:35:35;;;;;;;;;;;7.90;99.90;;;;;;5037261;28;19921;-60
2021/12/29 09:38:04;;;;;;;;;;;8.00;99.90;;;;;;5057222;28;19932;-59
2021/12/29 09:40:32;;;;;;;;;;;8.00;99.90;;;;;;5070220;28;19924;-59
2021/12/29 09:42:59;;;;;;;;;;;8.10;99.90;;;;;;5069550;28;20279;-60
2021/12/29 09:45:27;;;;;;;;;;;8.10;99.90;;;;;;5070144;28;19928;-60
2021/12/29 09:47:57;;;;;;;;;;;8.20;99.90;;;;;;5069917;28;19926;-60
2021/12/29 09:50:26;;;;;;;;;;;8.20;99.90;;;;;;5057315;28;19931;-59
2021/12/29 09:52:54;;;;;;;;;;;8.20;99.90;;;;;;5057934;28;20264;-59
2021/12/29 09:55:22;;;;;;;;;;;8.30;99.90;;;;;;5069890;28;19931;-59
2021/12/29 09:57:51;;;;;;;;;;;8.30;99.90;;;;;;5069475;28;20059;-59
2021/12/29 10:00:24;;;;;;;;;;;8.40;99.90;;;;;;5069918;28;19920;-60
2021/12/29 10:02:52;;;;;;;;;;;8.40;99.90;;;;;;5069292;28;19924;-60
2021/12/29 10:05:21;;;;;;;;;;;8.50;99.90;;;;;;5058480;28;19932;-60
2021/12/29 10:08:09;;;;;;;;;;;8.50;99.90;;;;;;5054872;28;20409;-60
2021/12/29 10:10:37;;;;;;;;;;;8.50;99.90;;;;;;5069269;28;20179;-59
2021/12/29 10:13:06;;;;;;;;;;;8.60;99.90;;;;;;5069376;28;19920;-60
2021/12/29 10:15:35;;;;;;;;;;;8.60;99.90;;;;;;5051778;28;20431;-62
2021/12/29 10:18:02;;;;;;;;;;;8.70;99.90;;;;;;5065916;28;20311;-62
2021/12/29 10:20:30;;;;;;;;;;;8.70;99.90;;;;;;5036964;28;19928;-59
2021/12/29 10:22:58;;;;;;;;;;;8.70;99.90;;;;;;5039684;28;19959;-60
2021/12/29 10:25:33;;;;;;;;;;;8.80;99.90;;;;;;5052705;28;19931;-57
2021/12/29 10:28:01;;;;;;;;;;;8.80;99.90;;;;;;5068386;28;20386;-57
2021/12/29 10:30:30;;;;;;;;;;;8.80;99.90;;;;;;5051351;28;20303;-60
2021/12/29 10:33:07;;;;;;;;;;;8.90;99.90;;;;;;5068813;28;19927;-59
2021/12/29 10:35:35;;;;;;;;;;;8.90;99.90;;;;;;5058131;28;19927;-60
2021/12/29 10:38:18;;;;;;;;;;;8.90;99.90;;;;;;5056282;28;19921;-59
2021/12/29 10:40:45;;;;;;;;;;;9.00;99.90;;;;;;5051359;28;19927;-59
2021/12/29 10:43:12;;;;;;;;;;;9.00;99.90;;;;;;5068626;28;19932;-59
2021/12/29 10:45:41;;;;;;;;;;;9.00;99.90;;;;;;5051443;28;19921;-61
2021/12/29 10:48:17;;;;;;;;;;;9.10;99.90;;;;;;5050941;28;19921;-62
2021/12/29 10:50:56;;;;;;;;;;;9.10;99.90;;;;;;5057174;28;20096;-59
2021/12/29 10:53:24;;;;;;;;;;;9.10;99.90;;;;;;5075795;28;19927;-61
2021/12/29 10:55:52;;;;;;;;;;;9.10;99.90;;;;;;5069102;28;19920;-62
2021/12/29 10:58:21;;;;;;;;;;;9.20;99.90;;;;;;5068617;28;19927;-61
2021/12/29 11:01:08;;;;;;;;;;;9.20;99.90;;;;;;5068688;28;19920;-61
2021/12/29 11:03:47;;;;;;;;;;;9.30;99.90;;;;;;5068035;28;19921;-62
2021/12/29 11:06:16;;;;;;;;;;;9.30;99.90;;;;;;5036061;28;19932;-62
2021/12/29 11:08:49;;;;;;;;;;;9.40;99.90;;;;;;5061257;28;19920;-62
2021/12/29 11:11:17;;;;;;;;;;;9.50;99.90;;;;;;5068616;28;19920;-61
2021/12/29 11:13:45;;;;;;;;;;;9.50;99.90;;;;;;5050442;28;19924;-62
2021/12/29 11:16:13;;;;;;;;;;;9.60;99.90;;;;;;5034222;28;19927;-63
2021/12/29 11:18:42;;;;;;;;;;;9.60;99.90;;;;;;5068450;28;20403;-61
2021/12/29 11:21:10;;;;;;;;;;;9.60;99.90;;;;;;5055935;28;19920;-62
2021/12/29 11:23:41;;;;;;;;;;;9.70;99.90;;;;;;5061371;28;19920;-60
2021/12/29 11:26:12;;;;;;;;;;;9.70;99.90;;;;;;5068621;28;19920;-60
2021/12/29 11:28:40;;;;;;;;;;;9.70;99.90;;;;;;5068052;28;19927;-60
2021/12/29 11:31:08;;;;;;;;;;;9.80;99.90;;;;;;5067359;28;19927;-61
2021/12/29 11:33:36;;;;;;;;;;;9.80;99.90;;;;;;5064809;28;19922;-60
2021/12/29 11:36:05;;;;;;;;;;;9.90;99.90;;;;;;5054272;28;20303;-60
2021/12/29 11:38:34;;;;;;;;;;;9.90;99.90;;;;;;5060338;28;19925;-62
2021/12/29 11:41:02;;;;;;;;;;;10.00;99.90;;;;;;5072502;28;20190;-60
2021/12/29 11:43:30;;;;;;;;;;;10.10;99.90;;;;;;5072139;28;19921;-62
2021/12/29 11:45:57;;;;;;;;;;;10.20;99.90;;;;;;5072364;28;19943;-62
2021/12/29 11:48:26;;;;;;;;;;;10.30;99.90;;;;;;5072101;28;19920;-63
2021/12/29 11:50:57;;;;;;;;;;;10.40;99.90;;;;;;5063909;28;19920;-62
2021/12/29 11:53:27;;;;;;;;;;;10.50;99.90;;;;;;5045257;28;19920;-59
2021/12/29 11:56:21;;;;;;;;;;;10.70;99.90;;;;;;5071986;28;19920;-60
2021/12/29 11:58:49;;;;;;;;;;;10.90;99.90;;;;;;5068217;28;19920;-59
2021/12/29 12:01:20;;;;;;;;;;;11.10;99.90;;;;;;5072119;28;19924;-61
2021/12/29 12:03:47;;;;;;;;;;;11.30;99.90;;;;;;5071596;28;20034;-60
2021/12/29 12:06:19;;;;;;;;;;;11.40;99.90;;;;;;5061940;28;19920;-60
2021/12/29 12:08:47;;;;;;;;;;;11.50;99.90;;;;;;5064849;28;19931;-60
2021/12/29 12:11:27;;;;;;;;;;;11.70;99.90;;;;;;5071995;28;19927;-61
2021/12/29 12:13:55;;;;;;;;;;;11.80;99.90;;;;;;5071247;28;19920;-64
2021/12/29 12:16:26;;;;;;;;;;;12.00;99.90;;;;;;5071723;28;19947;-66
2021/12/29 12:18:54;;;;;;;;;;;12.20;99.90;;;;;;5053543;28;19924;-66
2021/12/29 12:21:25;;;;;;;;;;;12.30;99.90;;;;;;5061884;28;20363;-61
2021/12/29 12:23:53;;;;;;;;;;;12.40;99.90;;;;;;5066938;28;19929;-62
2021/12/29 12:26:22;;;;;;;;;;;12.40;99.90;;;;;;5071548;28;19982;-62
2021/12/29 12:28:52;;;;;;;;;;;12.50;99.90;;;;;;5053645;28;20412;-64
2021/12/29 12:31:20;;;;;;;;;;;12.60;99.90;;;;;;5071860;28;19920;-64
2021/12/29 12:33:48;;;;;;;;;;;12.70;99.90;;;;;;5071191;28;19921;-62
2021/12/29 12:36:16;;;;;;;;;;;12.70;99.90;;;;;;5063044;28;19999;-61
2021/12/29 12:38:43;;;;;;;;;;;12.70;99.90;;;;;;5063704;28;19924;-61
2021/12/29 12:41:13;;;;;;;;;;;12.70;99.90;;;;;;5053990;28;20264;-61
2021/12/29 12:43:57;;;;;;;;;;;12.80;99.90;;;;;;5071041;28;19920;-60
2021/12/29 12:46:37;;;;;;;;;;;12.80;99.90;;;;;;5053361;28;19920;-63
2021/12/29 12:49:31;;;;;;;;;;;12.80;99.90;;;;;;5070595;28;19921;-63
2021/12/29 12:52:07;;;;;;;;;;;12.80;99.90;;;;;;5054282;28;19924;-63
2021/12/29 12:54:36;;;;;;;;;;;12.80;99.90;;;;;;5051626;28;19928;-61
2021/12/29 12:57:04;;;;;;;;;;;12.70;99.90;;;;;;5016748;28;19921;-63
2021/12/29 12:59:36;;;;;;;;;;;12.70;99.90;;;;;;5085471;28;19927;-62
2021/12/29 13:02:14;;;;;;;;;;;12.80;99.90;;;;;;5068269;28;20383;-61
2021/12/29 13:05:06;;;;;;;;;;;12.80;99.90;;;;;;5049928;28;20372;-61
2021/12/29 13:07:33;;;;;;;;;;;12.70;99.90;;;;;;5056059;28;19924;-60
2021/12/29 13:10:01;;;;;;;;;;;12.70;99.90;;;;;;5070665;28;19920;-60
2021/12/29 13:12:31;;;;;;;;;;;12.80;99.90;;;;;;5070647;28;19924;-61
2021/12/29 13:15:00;;;;;;;;;;;12.70;99.90;;;;;;5070772;28;19920;-59
2021/12/29 13:17:27;;;;;;;;;;;12.80;99.90;;;;;;5052965;28;19920;-59
2021/12/29 13:19:55;;;;;;;;;;;12.80;99.90;;;;;;5069432;28;19928;-59
2021/12/29 13:22:33;;;;;;;;;;;12.80;99.90;;;;;;5057567;28;20304;-59
2021/12/29 13:25:17;;;;;;;;;;;12.70;99.90;;;;;;5070318;28;19935;-59
2021/12/29 13:27:53;;;;;;;;;;;12.80;99.90;;;;;;5070424;28;19920;-59
2021/12/29 13:30:20;;;;;;;;;;;12.80;99.90;;;;;;5052325;28;19926;-59
2021/12/29 13:32:52;;;;;;;;;;;12.80;99.90;;;;;;5052438;28;20023;-58
2021/12/29 13:35:24;;;;;;;;;;;12.80;99.90;;;;;;5070256;28;19920;-59
2021/12/29 13:37:52;;;;;;;;;;;12.90;99.90;;;;;;5040635;28;20399;-59
2021/12/29 13:40:26;;;;;;;;;;;13.00;99.90;;;;;;5019004;28;19928;-59
2021/12/29 13:42:53;;;;;;;;;;;13.10;99.90;;;;;;5069939;28;19927;-59
2021/12/29 13:45:22;;;;;;;;;;;13.10;99.90;;;;;;5069927;28;19928;-59
2021/12/29 13:47:49;;;;;;;;;;;13.40;99.90;;;;;;5049975;28;19920;-59
2021/12/29 13:50:17;;;;;;;;;;;13.50;99.90;;;;;;5032107;28;19921;-61
2021/12/29 13:53:01;;;;;;;;;;;13.70;99.90;;;;;;5055789;28;20296;-60
2021/12/29 13:55:31;;;;;;;;;;;13.80;99.90;;;;;;5066868;28;19924;-60
2021/12/29 13:57:59;;;;;;;;;;;13.90;99.90;;;;;;5066420;28;19924;-61
2021/12/29 14:00:27;;;;;;;;;;;13.90;99.90;;;;;;5066259;28;19931;-60
2021/12/29 14:02:55;;;;;;;;;;;14.00;99.90;;;;;;5065121;28;19924;-60
2021/12/29 14:05:33;;;;;;;;;;;14.00;99.90;;;;;;5066156;28;19924;-61
2021/12/29 14:08:01;;;;;;;;;;;14.10;99.90;;;;;;5055497;28;20283;-61
2021/12/29 14:10:29;;;;;;;;;;;14.10;99.90;;;;;;5065073;28;20379;-63
2021/12/29 14:13:04;;;;;;;;;;;14.00;99.90;;;;;;5065886;28;19935;-60
2021/12/29 14:15:32;;;;;;;;;;;13.80;99.90;;;;;;5066129;28;19924;-61
2021/12/29 14:18:09;;;;;;;;;;;13.60;99.90;;;;;;5065345;28;19928;-63
2021/12/29 14:20:37;;;;;;;;;;;13.30;99.90;;;;;;5065914;28;19928;-63
2021/12/29 14:23:04;;;;;;;;;;;13.10;99.90;;;;;;5057553;28;20098;-63
2021/12/29 14:25:36;;;;;;;;;;;12.90;99.90;;;;;;5048121;28;19924;-63
2021/12/29 14:28:10;;;;;;;;;;;12.80;99.90;;;;;;5066083;28;19947;-63
2021/12/29 14:30:42;;;;;;;;;;;12.60;99.90;;;;;;5066017;28;19924;-59
2021/12/29 14:33:10;;;;;;;;;;;12.50;99.90;;;;;;5064566;28;20529;-60
2021/12/29 14:35:47;;;;;;;;;;;12.40;99.90;;;;;;5065810;28;19920;-60
2021/12/29 14:38:15;;;;;;;;;;;12.30;99.90;;;;;;5047340;28;19939;-59
2021/12/29 14:40:43;;;;;;;;;;;12.20;99.90;;;;;;5065842;28;19924;-59
2021/12/29 14:43:11;;;;;;;;;;;12.10;99.90;;;;;;5048035;28;20167;-59
2021/12/29 14:45:46;;;;;;;;;;;12.00;99.90;;;;;;5065862;28;19921;-61
2021/12/29 14:48:14;;;;;;;;;;;12.00;99.90;;;;;;5065379;28;19928;-61